createdAt,value
2023-01-04T00:00:52.833Z,3.60
2023-01-04T00:03:55.564Z,3.53
2023-01-04T00:07:00.726Z,4.20
2023-01-04T00:10:03.776Z,4.00
2023-01-04T00:13:06.776Z,3.28
2023-01-04T00:16:12.887Z,3.65
2023-01-04T00:19:15.901Z,4.60
2023-01-04T00:22:18.555Z,4.32
2023-01-04T00:25:20.913Z,4.05
2023-01-04T00:28:23.171Z,4.45
2023-01-04T00:31:26.279Z,4.80
2023-01-04T00:34:28.634Z,4.33
2023-01-04T00:37:31.889Z,5.43
2023-01-04T00:40:36.385Z,4.57
2023-01-04T00:43:39.056Z,4.82
2023-01-04T00:46:42.190Z,5.38
2023-01-04T00:49:44.336Z,5.30
2023-01-04T00:52:50.003Z,4.88
2023-01-04T00:55:54.205Z,4.93
2023-01-04T00:58:57.795Z,4.97
2023-01-04T01:02:00.816Z,5.10
2023-01-04T01:05:03.539Z,4.60
2023-01-04T01:08:24.751Z,5.05
2023-01-04T01:11:28.546Z,4.78
2023-01-04T01:14:30.680Z,5.72
2023-01-04T01:17:33.863Z,5.10
2023-01-04T01:20:45.811Z,4.87
2023-01-04T01:23:48.989Z,5.00
2023-01-04T01:26:51.165Z,5.25
2023-01-04T01:29:53.672Z,5.38
2023-01-04T01:32:55.812Z,5.30
2023-01-04T01:36:02.114Z,5.57
2023-01-04T01:39:05.591Z,5.63
2023-01-04T01:42:18.199Z,5.63
2023-01-04T01:45:32.719Z,4.90
2023-01-04T01:48:34.812Z,4.88
2023-01-04T01:51:38.109Z,4.33
2023-01-04T01:54:46.626Z,4.82
2023-01-04T01:57:50.855Z,4.72
2023-01-04T02:00:53.548Z,4.78
2023-01-04T02:03:56.886Z,4.55
2023-01-04T02:06:59.877Z,5.03
2023-01-04T02:10:03.805Z,4.72
2023-01-04T02:13:15.228Z,4.20
2023-01-04T02:16:46.297Z,4.35
2023-01-04T02:20:02.318Z,3.67
2023-01-04T02:23:38.905Z,4.17
2023-01-04T02:27:01.737Z,4.47
2023-01-04T02:30:24.444Z,4.50
2023-01-04T02:33:49.591Z,3.85
2023-01-04T02:37:08.524Z,4.22
2023-01-04T02:40:19.100Z,3.83
2023-01-04T02:43:54.377Z,3.80
2023-01-04T02:47:05.924Z,3.70
2023-01-04T02:50:37.378Z,4.28
2023-01-04T02:53:41.357Z,4.70
2023-01-04T02:57:30.822Z,3.80
2023-01-04T03:01:17.466Z,3.80
2023-01-04T03:05:10.805Z,4.30
2023-01-04T03:08:27.794Z,3.97
2023-01-04T03:12:04.005Z,4.20
2023-01-04T03:15:45.431Z,4.17
2023-01-04T03:18:51.717Z,4.00
2023-01-04T03:21:53.956Z,4.57
2023-01-04T03:25:15.589Z,4.30
2023-01-04T03:28:58.873Z,4.57
2023-01-04T03:32:32.729Z,4.20
2023-01-04T03:36:08.996Z,4.25
2023-01-04T03:40:14.664Z,4.50
2023-01-04T03:43:41.114Z,3.97
2023-01-04T03:47:08.359Z,4.35
2023-01-04T03:50:33.879Z,3.80
2023-01-04T03:53:50.375Z,3.97
2023-01-04T03:56:53.996Z,4.05
2023-01-04T04:00:09.525Z,3.90
2023-01-04T04:03:17.459Z,3.75
2023-01-04T04:06:38.416Z,4.00
2023-01-04T04:09:40.644Z,4.43
2023-01-04T04:12:42.661Z,4.25
2023-01-04T04:15:44.798Z,4.35
2023-01-04T04:18:51.008Z,4.68
2023-01-04T04:21:53.166Z,3.67
2023-01-04T04:24:56.281Z,4.10
2023-01-04T04:27:58.751Z,4.07
2023-01-04T04:31:03.515Z,4.10
2023-01-04T04:34:06.698Z,3.97
2023-01-04T04:37:09.308Z,4.07
2023-01-04T04:40:38.263Z,4.20
2023-01-04T04:43:41.713Z,4.15
2023-01-04T04:46:45.742Z,3.85
2023-01-04T04:49:50.709Z,4.45
2023-01-04T04:52:56.146Z,4.90
2023-01-04T04:55:58.836Z,4.45
2023-01-04T04:59:01.050Z,5.30
2023-01-04T05:02:04.037Z,4.80
2023-01-04T05:05:06.806Z,4.85
2023-01-04T05:08:08.907Z,4.83
2023-01-04T05:11:12.956Z,5.22
2023-01-04T05:14:15.497Z,4.70
2023-01-04T05:17:17.876Z,5.00
2023-01-04T05:20:26.441Z,4.72
2023-01-04T05:23:28.324Z,5.00
2023-01-04T05:26:30.302Z,5.05
2023-01-04T05:29:50.744Z,5.32
2023-01-04T05:32:53.980Z,5.13
2023-01-04T05:35:58.862Z,5.15
2023-01-04T05:39:01.127Z,5.47
2023-01-04T05:42:24.282Z,6.55
2023-01-04T05:45:27.404Z,7.15
2023-01-04T05:48:29.675Z,6.93
2023-01-04T05:51:31.874Z,7.72
2023-01-04T05:54:34.190Z,7.57
2023-01-04T05:57:36.384Z,7.97
2023-01-04T06:00:40.863Z,8.40
2023-01-04T06:03:42.822Z,8.15
2023-01-04T06:06:44.882Z,7.40
2023-01-04T06:09:48.409Z,7.80
2023-01-04T06:12:50.413Z,7.10
2023-01-04T06:15:52.273Z,5.75
2023-01-04T06:18:54.210Z,6.20
2023-01-04T06:21:56.854Z,6.78
2023-01-04T06:24:59.264Z,5.80
2023-01-04T06:28:01.085Z,6.57
2023-01-04T06:31:09.655Z,5.75
2023-01-04T06:34:12.721Z,5.72
2023-01-04T06:37:15.335Z,6.72
2023-01-04T06:40:18.650Z,6.47
2023-01-04T06:43:22.700Z,6.32
2023-01-04T06:46:26.726Z,6.35
2023-01-04T06:49:29.028Z,6.05
2023-01-04T06:52:31.046Z,6.50
2023-01-04T06:55:33.160Z,6.40
2023-01-04T06:58:36.544Z,6.65
2023-01-04T07:01:39.214Z,6.53
2023-01-04T07:04:44.636Z,8.52
2023-01-04T07:07:49.834Z,6.97
2023-01-04T07:10:53.040Z,6.97
2023-01-04T07:13:55.062Z,8.15
2023-01-04T07:16:57.113Z,8.85
2023-01-04T07:20:04.515Z,9.02
2023-01-04T07:23:14.231Z,8.90
2023-01-04T07:26:18.310Z,9.80
2023-01-04T07:29:26.028Z,15.75
2023-01-04T07:32:28.994Z,9.32
2023-01-04T07:35:31.822Z,9.13
2023-01-04T07:38:35.424Z,10.25
2023-01-04T07:41:42.109Z,10.13
2023-01-04T07:44:45.788Z,10.50
2023-01-04T07:47:48.035Z,10.82
2023-01-04T07:50:50.790Z,12.30
2023-01-04T07:53:53.075Z,11.55
2023-01-04T07:56:56.952Z,11.50
2023-01-04T08:00:01.170Z,11.30
2023-01-04T08:03:04.822Z,10.63
2023-01-04T08:06:11.622Z,10.45
2023-01-04T08:09:14.385Z,10.43
2023-01-04T08:12:16.421Z,10.03
2023-01-04T08:15:18.598Z,9.98
2023-01-04T08:18:25.224Z,9.63
2023-01-04T08:21:29.827Z,8.95
2023-01-04T08:24:32.533Z,9.73
2023-01-04T08:27:34.748Z,8.93
2023-01-04T08:30:37.838Z,9.30
2023-01-04T08:33:40.636Z,9.18
2023-01-04T08:36:49.719Z,9.00
2023-01-04T08:39:55.578Z,9.20
2023-01-04T08:42:57.912Z,9.87
2023-01-04T08:46:00.131Z,9.10
2023-01-04T08:49:02.321Z,9.65
2023-01-04T08:52:04.610Z,10.98
2023-01-04T08:55:12.297Z,9.13
2023-01-04T08:58:15.819Z,9.07
2023-01-04T09:01:22.315Z,9.07
2023-01-04T09:04:28.006Z,9.45
2023-01-04T09:07:32.978Z,7.78
2023-01-04T09:10:38.765Z,9.13
2023-01-04T09:13:42.039Z,8.57
2023-01-04T09:16:44.416Z,9.52
2023-01-04T09:19:46.675Z,9.68
2023-01-04T09:22:48.714Z,9.60
2023-01-04T09:25:51.911Z,9.23
2023-01-04T09:28:55.926Z,9.03
2023-01-04T09:31:58.452Z,10.07
2023-01-04T09:35:00.935Z,11.68
2023-01-04T09:38:03.359Z,9.35
2023-01-04T09:41:29.015Z,9.55
2023-01-04T09:45:21.994Z,10.13
2023-01-04T09:48:24.997Z,9.55
2023-01-04T09:51:37.020Z,10.20
2023-01-04T09:55:36.315Z,10.02
2023-01-04T09:58:35.075Z,9.40
2023-01-04T10:01:53.935Z,9.63
2023-01-04T10:05:00.237Z,9.75
2023-01-04T10:08:03.760Z,9.55
2023-01-04T10:11:48.687Z,9.52
2023-01-04T10:14:56.938Z,10.20
2023-01-04T10:22:10.020Z,9.15
2023-01-04T10:25:15.167Z,9.77
2023-01-04T10:28:37.990Z,9.98
2023-01-04T10:32:12.568Z,11.30
2023-01-04T10:35:26.236Z,9.43
2023-01-04T10:38:35.484Z,10.77
2023-01-04T10:41:45.673Z,10.63
2023-01-04T10:44:58.437Z,12.02
2023-01-04T10:48:22.779Z,13.73
2023-01-04T10:51:36.669Z,14.50
2023-01-04T10:54:48.054Z,16.08
2023-01-04T10:58:04.924Z,16.40
2023-01-04T11:01:15.854Z,15.80
2023-01-04T11:04:25.454Z,15.25
2023-01-04T11:07:37.223Z,14.83
2023-01-04T11:10:52.527Z,14.75
2023-01-04T11:13:54.663Z,15.32
2023-01-04T11:17:01.338Z,16.48
2023-01-04T11:20:04.092Z,15.02
2023-01-04T11:23:09.555Z,13.63
2023-01-04T11:26:22.351Z,13.25
2023-01-04T11:29:52.926Z,12.40
2023-01-04T11:33:03.738Z,11.75
2023-01-04T11:36:06.148Z,11.65
2023-01-04T11:39:23.551Z,9.37
2023-01-04T11:42:25.579Z,8.95
2023-01-04T11:45:28.958Z,9.48
2023-01-04T11:48:44.035Z,8.75
2023-01-04T11:51:45.989Z,8.07
2023-01-04T11:54:48.281Z,6.70
2023-01-04T11:58:21.059Z,6.53
2023-01-04T12:01:25.116Z,6.28
2023-01-04T12:04:29.068Z,5.65
2023-01-04T12:07:35.581Z,5.85
2023-01-04T12:10:39.179Z,5.90
2023-01-04T12:13:41.527Z,5.15
2023-01-04T12:16:58.783Z,5.00
2023-01-04T12:20:03.392Z,4.53
2023-01-04T12:23:05.909Z,4.45
2023-01-04T12:26:12.513Z,3.60
2023-01-04T12:29:23.955Z,4.28
2023-01-04T12:32:29.195Z,3.80
2023-01-04T12:36:09.065Z,3.20
2023-01-04T12:39:14.346Z,3.47
2023-01-04T12:42:21.733Z,2.87
2023-01-04T12:45:23.815Z,2.47
2023-01-04T12:48:47.582Z,2.40
2023-01-04T12:52:12.768Z,2.25
2023-01-04T12:55:23.752Z,2.40
2023-01-04T12:58:49.763Z,1.97
2023-01-04T13:02:20.164Z,2.63
2023-01-04T13:08:45.841Z,2.00
2023-01-04T13:12:26.215Z,2.30
2023-01-04T13:15:46.797Z,1.90
2023-01-04T13:19:03.166Z,2.05
2023-01-04T13:22:39.243Z,3.60
2023-01-04T13:25:41.540Z,5.55
2023-01-04T13:28:44.214Z,7.00
2023-01-04T13:31:51.054Z,6.33
2023-01-04T13:35:14.003Z,10.57
2023-01-04T13:38:16.965Z,9.20
2023-01-04T13:41:23.074Z,9.05
2023-01-04T13:45:00.139Z,10.00
2023-01-04T13:48:01.197Z,10.33
2023-01-04T13:51:18.095Z,10.48
2023-01-04T13:54:23.410Z,11.23
2023-01-04T13:57:26.090Z,11.77
2023-01-04T14:01:06.928Z,11.75
2023-01-04T14:04:18.215Z,11.13
2023-01-04T14:07:25.240Z,11.55
2023-01-04T14:10:29.043Z,12.15
2023-01-04T14:13:31.495Z,11.77
2023-01-04T14:16:33.750Z,12.95
2023-01-04T14:19:43.544Z,12.50
2023-01-04T14:22:45.635Z,12.35
2023-01-04T14:25:56.893Z,13.77
2023-01-04T14:28:59.744Z,12.98
2023-01-04T14:32:03.517Z,12.90
2023-01-04T14:35:13.985Z,13.90
2023-01-04T14:38:19.416Z,13.27
2023-01-04T14:41:33.128Z,14.13
2023-01-04T14:44:36.460Z,13.13
2023-01-04T14:47:38.399Z,15.18
2023-01-04T14:50:40.823Z,14.80
2023-01-04T14:53:42.712Z,14.25
2023-01-04T14:56:45.146Z,14.02
2023-01-04T14:59:47.231Z,14.00
2023-01-04T15:02:52.584Z,14.82
2023-01-04T15:05:54.683Z,15.50
2023-01-04T15:08:57.026Z,15.40
2023-01-04T15:11:59.596Z,16.27
2023-01-04T15:15:02.177Z,16.00
2023-01-04T15:18:04.711Z,16.33
2023-01-04T15:21:09.936Z,17.77
2023-01-04T15:24:12.115Z,34.05
2023-01-04T15:27:14.050Z,18.85
2023-01-04T15:30:16.019Z,19.85
2023-01-04T15:33:18.379Z,18.95
2023-01-04T15:36:24.032Z,19.03
2023-01-04T15:39:27.700Z,18.92
2023-01-04T15:42:48.236Z,18.45
2023-01-04T15:45:50.708Z,18.75
2023-01-04T15:48:52.976Z,19.88
2023-01-04T15:51:55.216Z,21.13
2023-01-04T15:54:59.782Z,22.35
2023-01-04T15:58:01.889Z,22.67
2023-01-04T16:01:18.287Z,22.42
2023-01-04T16:04:21.146Z,23.00
2023-01-04T16:07:29.831Z,24.33
2023-01-04T16:10:38.358Z,23.60
2023-01-04T16:13:44.170Z,23.80
2023-01-04T16:16:53.841Z,23.67
2023-01-04T16:19:57.175Z,31.05
2023-01-04T16:22:59.989Z,32.00
2023-01-04T16:26:09.395Z,28.88
2023-01-04T16:29:15.844Z,33.15
2023-01-04T16:32:19.216Z,31.08
2023-01-04T16:35:25.251Z,30.52
2023-01-04T16:38:30.639Z,28.53
2023-01-04T16:41:36.267Z,25.75
2023-01-04T16:44:46.637Z,24.48
2023-01-04T16:47:51.580Z,25.60
2023-01-04T16:50:53.665Z,27.20
2023-01-04T16:53:56.280Z,27.10
2023-01-04T16:56:58.660Z,25.77
2023-01-04T17:00:00.915Z,32.15
2023-01-04T17:03:05.768Z,30.08
2023-01-04T17:06:19.428Z,27.25
2023-01-04T17:09:22.449Z,27.30
2023-01-04T17:15:47.892Z,25.08
2023-01-04T17:18:52.005Z,26.77
2023-01-04T17:21:54.852Z,23.73
2023-01-04T17:24:58.398Z,22.93
2023-01-04T17:28:00.509Z,22.45
2023-01-04T17:31:08.025Z,23.27
2023-01-04T17:34:21.939Z,18.85
2023-01-04T17:37:27.788Z,23.88
2023-01-04T17:40:30.106Z,21.63
2023-01-04T17:43:32.870Z,23.77
2023-01-04T17:46:38.655Z,22.80
2023-01-04T17:49:41.174Z,23.55
2023-01-04T17:52:43.827Z,25.00
2023-01-04T17:55:45.909Z,24.77
2023-01-04T17:58:48.032Z,23.92
2023-01-04T18:01:56.794Z,28.02
2023-01-04T18:04:59.611Z,28.33
2023-01-04T18:08:03.013Z,23.70
2023-01-04T18:11:07.706Z,27.50
2023-01-04T18:14:14.079Z,29.42
2023-01-04T18:17:25.033Z,30.17
2023-01-04T18:20:32.277Z,30.88
2023-01-04T18:23:55.398Z,34.42
2023-01-04T18:27:24.406Z,35.10
2023-01-04T18:30:28.517Z,38.00
2023-01-04T18:33:33.956Z,32.42
2023-01-04T18:36:42.698Z,33.03
2023-01-04T18:39:45.902Z,28.52
2023-01-04T18:42:51.740Z,24.83
2023-01-04T18:45:54.672Z,26.50
2023-01-04T18:49:00.023Z,31.65
2023-01-04T18:52:03.415Z,31.25
2023-01-04T18:55:10.671Z,28.95
2023-01-04T18:58:13.257Z,26.53
2023-01-04T19:01:20.608Z,30.27
2023-01-04T19:04:23.836Z,33.38
2023-01-04T19:07:26.859Z,30.67
2023-01-04T19:10:32.137Z,23.38
2023-01-04T19:13:35.994Z,22.23
2023-01-04T19:16:41.761Z,23.00
2023-01-04T19:19:50.165Z,23.75
2023-01-04T19:22:52.700Z,25.40
2023-01-04T19:25:56.065Z,29.02
2023-01-04T19:28:58.888Z,23.37
2023-01-04T19:32:03.232Z,29.33
2023-01-04T19:35:06.515Z,30.48
2023-01-04T19:38:12.601Z,32.80
2023-01-04T19:41:29.326Z,27.83
2023-01-04T19:44:39.103Z,25.40
2023-01-04T19:47:45.529Z,22.02
2023-01-04T19:50:47.782Z,21.95
2023-01-04T19:53:51.922Z,22.73
2023-01-04T19:56:54.751Z,26.92
2023-01-04T19:59:57.207Z,24.40
2023-01-04T20:03:02.599Z,27.70
2023-01-04T20:06:06.451Z,26.33
2023-01-04T20:09:08.718Z,21.70
2023-01-04T20:12:11.660Z,23.08
2023-01-04T20:15:14.502Z,25.63
2023-01-04T20:18:16.932Z,27.45
2023-01-04T20:21:20.391Z,26.50
2023-01-04T20:24:22.559Z,21.40
2023-01-04T20:27:24.897Z,26.50
2023-01-04T20:30:27.275Z,22.87
2023-01-04T20:33:31.349Z,19.80
2023-01-04T20:36:34.657Z,20.05
2023-01-04T20:39:36.922Z,21.65
2023-01-04T20:42:58.878Z,22.02
2023-01-04T20:46:02.938Z,21.10
2023-01-04T20:49:06.416Z,23.73
2023-01-04T20:52:08.668Z,22.98
2023-01-04T20:55:17.261Z,19.67
2023-01-04T20:58:20.736Z,20.50
2023-01-04T21:01:23.293Z,19.70
2023-01-04T21:04:25.554Z,18.15
2023-01-04T21:07:30.037Z,17.27
2023-01-04T21:10:34.588Z,20.60
2023-01-04T21:13:36.597Z,28.35
2023-01-04T21:16:41.449Z,18.73
2023-01-04T21:19:44.498Z,18.08
2023-01-04T21:22:46.764Z,19.08
2023-01-04T21:25:50.223Z,21.73
2023-01-04T21:28:53.114Z,26.05
2023-01-04T21:31:55.671Z,22.47
2023-01-04T21:34:58.137Z,19.90
2023-01-04T21:38:00.271Z,22.63
2023-01-04T21:41:11.278Z,19.60
2023-01-04T21:44:13.603Z,23.23
2023-01-04T21:47:16.136Z,29.07
2023-01-04T21:50:18.641Z,24.48
2023-01-04T21:53:20.973Z,22.80
2023-01-04T21:56:24.489Z,21.50
2023-01-04T21:59:26.537Z,22.35
2023-01-04T22:02:28.533Z,21.30
2023-01-04T22:05:31.229Z,23.63
2023-01-04T22:08:33.915Z,22.88
2023-01-04T22:11:35.958Z,23.02
2023-01-04T22:14:38.075Z,21.65
2023-01-04T22:17:40.163Z,23.53
2023-01-04T22:20:42.311Z,25.35
2023-01-04T22:23:45.268Z,24.77
2023-01-04T22:26:49.485Z,23.02
2023-01-04T22:29:51.441Z,25.13
2023-01-04T22:32:54.835Z,23.53
2023-01-04T22:35:58.705Z,22.00
2023-01-04T22:39:01.446Z,19.35
2023-01-04T22:42:03.817Z,17.95
2023-01-04T22:45:13.286Z,18.40
2023-01-04T22:48:15.999Z,18.33
2023-01-04T22:51:19.421Z,16.95
2023-01-04T22:54:21.626Z,18.25
2023-01-04T22:57:23.910Z,15.75
2023-01-04T23:00:26.865Z,16.60
2023-01-04T23:03:29.211Z,16.47
2023-01-04T23:06:32.260Z,14.35
2023-01-04T23:09:34.358Z,15.10
2023-01-04T23:12:36.404Z,15.10
2023-01-04T23:15:39.630Z,15.20
2023-01-04T23:18:46.301Z,14.37
2023-01-04T23:21:49.336Z,14.63
2023-01-04T23:24:52.218Z,14.15
2023-01-04T23:27:54.324Z,12.15
2023-01-04T23:30:57.062Z,13.35
2023-01-04T23:34:03.275Z,14.53
2023-01-04T23:37:05.981Z,13.45
2023-01-04T23:40:09.002Z,12.70
2023-01-04T23:43:14.627Z,12.95
2023-01-04T23:46:18.696Z,13.05
2023-01-04T23:49:21.999Z,13.50
2023-01-04T23:52:24.474Z,12.77
2023-01-04T23:55:26.658Z,13.85
2023-01-04T23:58:31.251Z,13.95
